Time;durP1;ratioP1;P1;durP2;ratioP2;P2;SDS_P1;SDS_P2;PMS_P1;PMS_P2;Temp;Humidity;BMP_temperature;BMP_pressure;BME280_temperature;BME280_humidity;BME280_pressure;Samples;Min_cycle;Max_cycle;Signal;HPM_P1;HPM_P2
2023/06/02 00:01:00;;;;;;;4.00;2.67;;;;;;;;;;5074022;28;20017;-58
2023/06/02 00:03:30;;;;;;;3.38;2.50;;;;;;;;;;5073970;28;20033;-58
2023/06/02 00:05:57;;;;;;;4.10;2.67;;;;;;;;;;5073624;28;20113;-61
2023/06/02 00:08:23;;;;;;;4.40;2.70;;;;;;;;;;5073632;28;20028;-61
2023/06/02 00:10:48;;;;;;;3.58;2.97;;;;;;;;;;5073550;28;20082;-61
2023/06/02 00:13:14;;;;;;;2.50;2.30;;;;;;;;;;5073570;28;20029;-61
2023/06/02 00:15:40;;;;;;;4.07;2.80;;;;;;;;;;5073678;28;20024;-58
2023/06/02 00:18:07;;;;;;;6.03;2.60;;;;;;;;;;5072735;28;20507;-59
2023/06/02 00:20:32;;;;;;;4.82;2.97;;;;;;;;;;5073302;28;20491;-58
2023/06/02 00:22:58;;;;;;;5.68;2.95;;;;;;;;;;5073260;28;20036;-61
2023/06/02 00:25:23;;;;;;;3.53;2.58;;;;;;;;;;5073266;28;20021;-58
2023/06/02 00:27:49;;;;;;;5.45;2.83;;;;;;;;;;5073229;28;20028;-58
2023/06/02 00:30:15;;;;;;;3.13;2.85;;;;;;;;;;5073161;28;20067;-58
2023/06/02 00:32:40;;;;;;;4.05;2.65;;;;;;;;;;5073118;28;20032;-61
2023/06/02 00:35:06;;;;;;;3.88;2.78;;;;;;;;;;5073260;28;20024;-61
2023/06/02 00:37:31;;;;;;;5.50;2.80;;;;;;;;;;5073090;28;20493;-61
2023/06/02 00:39:57;;;;;;;4.18;2.38;;;;;;;;;;5072743;28;20127;-60
2023/06/02 00:42:22;;;;;;;4.68;2.90;;;;;;;;;;5073200;28;20025;-60
2023/06/02 00:44:48;;;;;;;3.28;2.55;;;;;;;;;;5072904;28;20472;-60
2023/06/02 00:47:13;;;;;;;2.92;2.55;;;;;;;;;;5072893;28;20039;-58
2023/06/02 00:49:39;;;;;;;4.60;2.60;;;;;;;;;;5072783;28;20021;-60
2023/06/02 00:52:05;;;;;;;3.75;2.58;;;;;;;;;;5072910;28;20032;-58
2023/06/02 00:54:31;;;;;;;3.47;2.60;;;;;;;;;;5072798;28;20039;-58
2023/06/02 00:56:57;;;;;;;4.65;2.65;;;;;;;;;;5072809;28;20505;-57
2023/06/02 00:59:23;;;;;;;5.72;3.33;;;;;;;;;;5072714;28;20028;-58
2023/06/02 01:01:50;;;;;;;4.32;3.00;;;;;;;;;;5072727;28;20024;-59
2023/06/02 01:04:17;;;;;;;3.92;2.70;;;;;;;;;;5072602;28;20104;-58
2023/06/02 01:06:44;;;;;;;3.42;2.60;;;;;;;;;;5072894;28;20029;-58
2023/06/02 01:09:12;;;;;;;3.83;2.95;;;;;;;;;;5072586;28;20435;-57
2023/06/02 01:11:37;;;;;;;2.83;2.45;;;;;;;;;;5072645;28;20021;-58
2023/06/02 01:14:03;;;;;;;3.38;2.65;;;;;;;;;;5072452;28;20037;-58
2023/06/02 01:16:32;;;;;;;2.78;2.55;;;;;;;;;;5072624;28;20039;-57
2023/06/02 01:19:00;;;;;;;3.87;2.90;;;;;;;;;;5072457;28;20020;-58
2023/06/02 01:21:30;;;;;;;2.72;2.42;;;;;;;;;;5072735;28;20620;-58
2023/06/02 01:23:57;;;;;;;3.00;2.70;;;;;;;;;;5071138;28;20029;-57
2023/06/02 01:26:23;;;;;;;2.80;2.45;;;;;;;;;;5072677;28;20130;-58
2023/06/02 01:28:49;;;;;;;2.90;2.60;;;;;;;;;;5072338;28;20051;-57
2023/06/02 01:31:25;;;;;;;3.10;2.55;;;;;;;;;;5072431;28;20571;-58
2023/06/02 01:34:21;;;;;;;3.58;2.45;;;;;;;;;;5072289;28;20063;-58
2023/06/02 01:36:50;;;;;;;2.83;2.38;;;;;;;;;;5072303;28;20032;-58
2023/06/02 01:39:17;;;;;;;4.80;2.88;;;;;;;;;;5072146;28;20041;-58
2023/06/02 01:41:45;;;;;;;2.72;2.53;;;;;;;;;;5072199;28;20032;-59
2023/06/02 01:44:11;;;;;;;4.55;2.53;;;;;;;;;;5072226;28;20107;-58
2023/06/02 01:46:39;;;;;;;4.57;2.50;;;;;;;;;;5072248;28;20440;-58
2023/06/02 01:49:13;;;;;;;2.85;2.42;;;;;;;;;;5072511;28;20025;-61
2023/06/02 01:51:38;;;;;;;2.80;2.50;;;;;;;;;;5072255;28;20032;-58
2023/06/02 01:54:04;;;;;;;4.72;2.60;;;;;;;;;;5072412;28;20025;-58
2023/06/02 01:56:29;;;;;;;3.40;2.72;;;;;;;;;;5072088;28;20546;-59
2023/06/02 01:58:55;;;;;;;4.80;2.90;;;;;;;;;;5072153;28;20021;-58
2023/06/02 02:01:21;;;;;;;3.13;2.60;;;;;;;;;;5071972;28;20062;-60
2023/06/02 02:03:47;;;;;;;5.13;2.90;;;;;;;;;;5071975;28;20032;-58
2023/06/02 02:06:14;;;;;;;3.55;2.45;;;;;;;;;;5072046;28;20663;-58
2023/06/02 02:08:39;;;;;;;3.75;2.75;;;;;;;;;;5072317;28;20040;-58
2023/06/02 02:11:05;;;;;;;3.53;2.55;;;;;;;;;;5071943;28;20075;-59
2023/06/02 02:13:30;;;;;;;4.35;2.80;;;;;;;;;;5071955;28;20028;-61
2023/06/02 02:15:56;;;;;;;5.63;2.50;;;;;;;;;;5071878;28;20376;-58
2023/06/02 02:18:24;;;;;;;3.13;2.65;;;;;;;;;;5072164;28;20016;-56
2023/06/02 02:20:50;;;;;;;2.97;2.67;;;;;;;;;;5071832;28;20111;-59
2023/06/02 02:23:15;;;;;;;2.75;2.50;;;;;;;;;;5071766;28;20124;-58
2023/06/02 02:25:41;;;;;;;3.28;2.63;;;;;;;;;;5072077;28;20033;-59
2023/06/02 02:28:06;;;;;;;3.67;2.60;;;;;;;;;;5072139;28;20169;-59
2023/06/02 02:30:32;;;;;;;3.17;2.88;;;;;;;;;;5071756;28;20551;-58
2023/06/02 02:32:57;;;;;;;4.55;2.40;;;;;;;;;;5072040;28;20024;-59
2023/06/02 02:35:23;;;;;;;4.00;2.97;;;;;;;;;;5071645;28;20028;-59
2023/06/02 02:37:48;;;;;;;2.78;2.45;;;;;;;;;;5087195;28;20021;-60
2023/06/02 02:40:15;;;;;;;3.58;2.50;;;;;;;;;;5072359;28;20484;-58
2023/06/02 02:42:41;;;;;;;4.25;2.72;;;;;;;;;;5075225;28;20032;-58
2023/06/02 02:45:08;;;;;;;2.97;2.42;;;;;;;;;;5075513;28;20032;-58
2023/06/02 02:47:33;;;;;;;4.38;2.75;;;;;;;;;;5074019;28;20032;-60
2023/06/02 02:49:59;;;;;;;2.95;2.55;;;;;;;;;;5075421;28;20029;-61
2023/06/02 02:52:24;;;;;;;2.80;2.50;;;;;;;;;;5075459;28;20384;-61
2023/06/02 02:54:50;;;;;;;6.07;2.70;;;;;;;;;;5075103;28;20091;-59
2023/06/02 02:57:15;;;;;;;2.65;2.45;;;;;;;;;;5075143;28;20549;-59
2023/06/02 02:59:41;;;;;;;3.22;2.63;;;;;;;;;;5075214;28;20029;-61
2023/06/02 03:02:07;;;;;;;3.33;2.70;;;;;;;;;;5074949;28;20025;-58
2023/06/02 03:04:34;;;;;;;2.67;2.47;;;;;;;;;;5074892;28;20032;-60
2023/06/02 03:07:01;;;;;;;2.63;2.42;;;;;;;;;;5075176;28;20051;-60
2023/06/02 03:09:27;;;;;;;3.35;2.72;;;;;;;;;;5074888;28;20021;-60
2023/06/02 03:11:53;;;;;;;3.15;2.60;;;;;;;;;;5075153;28;20060;-58
2023/06/02 03:14:18;;;;;;;4.13;2.47;;;;;;;;;;5074709;28;20121;-58
2023/06/02 03:16:48;;;;;;;4.40;2.63;;;;;;;;;;5074732;28;20021;-58
2023/06/02 03:19:15;;;;;;;2.63;2.42;;;;;;;;;;5074613;28;20476;-58
2023/06/02 03:21:44;;;;;;;3.38;2.30;;;;;;;;;;5074650;28;20494;-58
2023/06/02 03:24:15;;;;;;;3.17;2.72;;;;;;;;;;5074496;28;20082;-58
2023/06/02 03:26:41;;;;;;;2.88;2.58;;;;;;;;;;5074528;28;20028;-59
2023/06/02 03:29:08;;;;;;;3.28;2.45;;;;;;;;;;5074425;28;20560;-58
2023/06/02 03:31:34;;;;;;;3.25;2.60;;;;;;;;;;5074742;28;20345;-58
2023/06/02 03:34:01;;;;;;;2.85;2.55;;;;;;;;;;5074635;28;20041;-58
2023/06/02 03:36:27;;;;;;;2.50;2.30;;;;;;;;;;5074303;28;20472;-59
2023/06/02 03:38:52;;;;;;;2.95;2.63;;;;;;;;;;5074075;28;20094;-59
2023/06/02 03:41:18;;;;;;;3.10;2.55;;;;;;;;;;5074232;28;20021;-58
2023/06/02 03:43:43;;;;;;;3.45;2.50;;;;;;;;;;5074318;28;20036;-59
2023/06/02 03:46:09;;;;;;;3.78;2.65;;;;;;;;;;5074022;28;20362;-58
2023/06/02 03:48:36;;;;;;;4.07;2.60;;;;;;;;;;5074013;28;20120;-59
2023/06/02 03:51:01;;;;;;;2.90;2.58;;;;;;;;;;5073905;28;20521;-59
2023/06/02 03:53:27;;;;;;;3.72;2.63;;;;;;;;;;5072726;28;20107;-59
2023/06/02 03:55:52;;;;;;;4.03;2.78;;;;;;;;;;5073842;28;20040;-58
2023/06/02 03:58:19;;;;;;;3.97;3.15;;;;;;;;;;5073772;28;20032;-59
2023/06/02 04:00:46;;;;;;;2.88;2.58;;;;;;;;;;5073801;28;20040;-58
2023/06/02 04:03:12;;;;;;;4.28;2.60;;;;;;;;;;5089238;28;20025;-62
2023/06/02 04:05:38;;;;;;;2.92;2.33;;;;;;;;;;5073738;28;20021;-61
2023/06/02 04:08:03;;;;;;;3.20;2.63;;;;;;;;;;5073652;28;20020;-61
2023/06/02 04:10:30;;;;;;;3.38;2.55;;;;;;;;;;5073597;28;20356;-60
2023/06/02 04:12:56;;;;;;;5.45;2.45;;;;;;;;;;5073507;28;20025;-62
2023/06/02 04:15:22;;;;;;;2.97;2.53;;;;;;;;;;5073514;28;20559;-62
2023/06/02 04:17:48;;;;;;;3.22;2.85;;;;;;;;;;5073354;28;20024;-59
2023/06/02 04:20:13;;;;;;;3.33;2.38;;;;;;;;;;5073448;28;20024;-59
2023/06/02 04:22:39;;;;;;;3.10;2.47;;;;;;;;;;5073211;28;20074;-62
2023/06/02 04:25:05;;;;;;;2.85;2.58;;;;;;;;;;5073283;28;20021;-60
2023/06/02 04:27:31;;;;;;;4.10;2.60;;;;;;;;;;5073244;28;20506;-59
2023/06/02 04:29:58;;;;;;;2.97;2.67;;;;;;;;;;5073525;28;20029;-59
2023/06/02 04:32:24;;;;;;;2.88;2.60;;;;;;;;;;5073032;28;20025;-60
2023/06/02 04:34:50;;;;;;;2.72;2.53;;;;;;;;;;5073128;28;20029;-59
2023/06/02 04:37:16;;;;;;;3.75;2.60;;;;;;;;;;5072962;28;20070;-58
2023/06/02 04:39:46;;;;;;;2.55;2.35;;;;;;;;;;5072781;28;20052;-58
2023/06/02 04:42:18;;;;;;;2.90;2.58;;;;;;;;;;5073115;28;20607;-59
2023/06/02 04:44:48;;;;;;;3.40;2.55;;;;;;;;;;5073246;28;20075;-62
2023/06/02 04:47:14;;;;;;;3.08;2.78;;;;;;;;;;5073171;28;20028;-58
2023/06/02 04:49:40;;;;;;;3.67;2.75;;;;;;;;;;5072795;28;20123;-59
2023/06/02 04:52:09;;;;;;;2.65;2.42;;;;;;;;;;5073082;28;20104;-59
2023/06/02 04:54:35;;;;;;;4.32;2.50;;;;;;;;;;5072865;28;20380;-58
2023/06/02 04:57:05;;;;;;;3.03;2.72;;;;;;;;;;5071511;28;20094;-62
2023/06/02 04:59:33;;;;;;;3.17;2.45;;;;;;;;;;5072775;28;20379;-58
2023/06/02 05:02:00;;;;;;;2.65;2.45;;;;;;;;;;5072598;28;20472;-58
2023/06/02 05:04:26;;;;;;;2.60;2.40;;;;;;;;;;5072248;28;20464;-62
2023/06/02 05:06:52;;;;;;;2.50;2.30;;;;;;;;;;5072632;28;20040;-59
2023/06/02 05:09:18;;;;;;;4.13;2.33;;;;;;;;;;5072495;28;20583;-58
2023/06/02 05:11:43;;;;;;;3.22;2.60;;;;;;;;;;5072776;28;20112;-59
2023/06/02 05:14:09;;;;;;;3.30;2.45;;;;;;;;;;5072454;28;20070;-61
2023/06/02 05:16:35;;;;;;;2.70;2.45;;;;;;;;;;5072619;28;20372;-58
2023/06/02 05:19:01;;;;;;;2.80;2.60;;;;;;;;;;5071317;28;20036;-60
2023/06/02 05:21:28;;;;;;;3.92;2.53;;;;;;;;;;5072381;28;20039;-60
2023/06/02 05:23:54;;;;;;;3.15;2.40;;;;;;;;;;5070992;28;20037;-59
2023/06/02 05:26:20;;;;;;;2.50;2.25;;;;;;;;;;5072380;28;20055;-62
2023/06/02 05:28:48;;;;;;;3.15;2.30;;;;;;;;;;5072548;28;20033;-62
2023/06/02 05:31:14;;;;;;;2.40;2.20;;;;;;;;;;5072380;28;20028;-62
2023/06/02 05:33:39;;;;;;;3.10;2.42;;;;;;;;;;5072571;28;20047;-60
2023/06/02 05:36:05;;;;;;;2.80;2.60;;;;;;;;;;5072261;28;20074;-59
2023/06/02 05:38:30;;;;;;;2.58;2.33;;;;;;;;;;5072130;28;20041;-63
2023/06/02 05:40:56;;;;;;;2.72;2.30;;;;;;;;;;5072250;28;20031;-59
2023/06/02 05:43:21;;;;;;;2.30;2.10;;;;;;;;;;5072144;28;20029;-59
2023/06/02 05:45:47;;;;;;;2.95;2.33;;;;;;;;;;5072193;28;20078;-59
2023/06/02 05:48:12;;;;;;;2.78;2.58;;;;;;;;;;5071678;28;20021;-59
2023/06/02 05:50:38;;;;;;;3.28;2.58;;;;;;;;;;5071032;28;20026;-60
2023/06/02 05:53:03;;;;;;;5.88;2.58;;;;;;;;;;5071441;28;20060;-61
2023/06/02 05:55:29;;;;;;;2.60;2.40;;;;;;;;;;5070697;28;20027;-59
2023/06/02 05:57:57;;;;;;;2.45;2.22;;;;;;;;;;5070436;28;20028;-59
2023/06/02 06:00:23;;;;;;;2.55;2.35;;;;;;;;;;5070979;28;20032;-60
2023/06/02 06:02:49;;;;;;;2.75;2.50;;;;;;;;;;5070656;28;20029;-59
2023/06/02 06:05:15;;;;;;;2.45;2.25;;;;;;;;;;5071694;28;20043;-59
2023/06/02 06:07:40;;;;;;;2.50;2.30;;;;;;;;;;5070909;28;20020;-59
2023/06/02 06:10:07;;;;;;;2.53;2.25;;;;;;;;;;5072026;28;20490;-60
2023/06/02 06:12:32;;;;;;;9.07;2.65;;;;;;;;;;5087485;28;20033;-64
2023/06/02 06:14:58;;;;;;;2.60;2.40;;;;;;;;;;5071954;28;20115;-59
2023/06/02 06:17:23;;;;;;;3.08;2.40;;;;;;;;;;5075760;28;20029;-60
2023/06/02 06:19:49;;;;;;;2.60;2.40;;;;;;;;;;5074476;28;20115;-59
2023/06/02 06:22:14;;;;;;;3.65;2.50;;;;;;;;;;5075897;28;20032;-60
2023/06/02 06:24:40;;;;;;;2.35;2.15;;;;;;;;;;5075908;28;20039;-60
2023/06/02 06:27:05;;;;;;;2.58;2.33;;;;;;;;;;5075463;28;20052;-60
2023/06/02 06:29:31;;;;;;;2.38;2.17;;;;;;;;;;5075867;28;20028;-60
2023/06/02 06:31:56;;;;;;;2.67;2.40;;;;;;;;;;5075393;28;20024;-59
2023/06/02 06:34:22;;;;;;;2.80;2.28;;;;;;;;;;5075572;28;20360;-59
2023/06/02 06:36:48;;;;;;;3.38;2.70;;;;;;;;;;5075701;28;20020;-62
2023/06/02 06:39:13;;;;;;;4.25;2.42;;;;;;;;;;5075283;28;20045;-62
2023/06/02 06:41:41;;;;;;;2.92;2.50;;;;;;;;;;5075216;28;20020;-59
2023/06/02 06:44:06;;;;;;;5.22;2.50;;;;;;;;;;5075298;28;20033;-62
2023/06/02 06:46:32;;;;;;;2.40;2.20;;;;;;;;;;5090842;28;20036;-59
2023/06/02 06:48:58;;;;;;;3.42;2.80;;;;;;;;;;5075492;28;20024;-59
2023/06/02 06:51:24;;;;;;;2.53;2.25;;;;;;;;;;5075371;28;20137;-59
2023/06/02 06:53:49;;;;;;;3.80;2.47;;;;;;;;;;5075454;28;20488;-63
2023/06/02 06:56:15;;;;;;;2.55;2.35;;;;;;;;;;5075019;28;20602;-59
2023/06/02 06:58:40;;;;;;;3.00;2.33;;;;;;;;;;5075349;28;20033;-59
2023/06/02 07:01:06;;;;;;;2.60;2.40;;;;;;;;;;5074943;28;20028;-59
2023/06/02 07:03:31;;;;;;;2.25;2.08;;;;;;;;;;5074888;28;20039;-62
2023/06/02 07:05:57;;;;;;;2.95;2.40;;;;;;;;;;5074845;28;20036;-61
2023/06/02 07:08:23;;;;;;;2.40;2.20;;;;;;;;;;5074842;28;20086;-60
2023/06/02 07:10:48;;;;;;;2.50;2.30;;;;;;;;;;5074798;28;20304;-59
2023/06/02 07:13:15;;;;;;;2.35;2.15;;;;;;;;;;5075422;28;20029;-59
2023/06/02 07:15:40;;;;;;;2.70;2.50;;;;;;;;;;5074673;28;20068;-60
2023/06/02 07:18:06;;;;;;;2.60;2.40;;;;;;;;;;5074695;28;20435;-62
2023/06/02 07:20:32;;;;;;;2.30;2.10;;;;;;;;;;5074740;28;20028;-60
2023/06/02 07:22:57;;;;;;;2.30;2.13;;;;;;;;;;5073302;28;20082;-59
2023/06/02 07:25:23;;;;;;;3.25;2.60;;;;;;;;;;5074784;28;20081;-60
2023/06/02 07:27:49;;;;;;;2.40;2.20;;;;;;;;;;5074234;28;20016;-59
2023/06/02 07:30:15;;;;;;;3.10;2.40;;;;;;;;;;5074650;28;20025;-60
2023/06/02 07:32:40;;;;;;;2.28;2.10;;;;;;;;;;5074316;28;20028;-59
2023/06/02 07:35:06;;;;;;;2.45;2.25;;;;;;;;;;5074143;28;20032;-60
2023/06/02 07:37:32;;;;;;;3.33;2.25;;;;;;;;;;5074288;28;20107;-60
2023/06/02 07:39:57;;;;;;;3.10;2.30;;;;;;;;;;5073949;28;20056;-60
2023/06/02 07:42:23;;;;;;;3.15;2.40;;;;;;;;;;5074030;28;20032;-61
2023/06/02 07:44:48;;;;;;;2.63;2.17;;;;;;;;;;5074115;28;20286;-60
2023/06/02 07:47:14;;;;;;;2.35;2.15;;;;;;;;;;5074127;28;20056;-62
2023/06/02 07:49:40;;;;;;;3.28;2.28;;;;;;;;;;5074252;28;20024;-60
2023/06/02 07:52:05;;;;;;;2.40;2.20;;;;;;;;;;5074313;28;20074;-60
2023/06/02 07:54:31;;;;;;;2.47;2.22;;;;;;;;;;5073892;28;20024;-61
2023/06/02 07:56:56;;;;;;;2.38;2.15;;;;;;;;;;5073881;28;20023;-60
2023/06/02 07:59:23;;;;;;;2.47;2.28;;;;;;;;;;5074185;28;20027;-60
2023/06/02 08:01:48;;;;;;;2.83;2.40;;;;;;;;;;5074055;28;20048;-62
2023/06/02 08:04:14;;;;;;;2.63;2.15;;;;;;;;;;5073598;28;20059;-60
2023/06/02 08:06:40;;;;;;;2.78;2.10;;;;;;;;;;5073618;28;20025;-60
2023/06/02 08:09:06;;;;;;;2.72;2.40;;;;;;;;;;5073573;28;20020;-62
2023/06/02 08:11:31;;;;;;;2.20;2.00;;;;;;;;;;5073869;28;20029;-60
2023/06/02 08:13:57;;;;;;;2.38;2.17;;;;;;;;;;5073799;28;20352;-60
2023/06/02 08:16:23;;;;;;;2.35;2.10;;;;;;;;;;5073593;28;20515;-62
2023/06/02 08:18:50;;;;;;;3.13;2.30;;;;;;;;;;5073391;28;20154;-60
2023/06/02 08:21:15;;;;;;;3.30;2.95;;;;;;;;;;5073364;28;20418;-60
2023/06/02 08:23:41;;;;;;;2.30;2.15;;;;;;;;;;5088797;28;20028;-62
2023/06/02 08:26:06;;;;;;;2.47;2.28;;;;;;;;;;5073348;28;20044;-60
2023/06/02 08:28:33;;;;;;;2.50;2.30;;;;;;;;;;5073471;28;20030;-60
2023/06/02 08:31:02;;;;;;;2.50;2.30;;;;;;;;;;5073446;28;20095;-62
2023/06/02 08:33:27;;;;;;;2.20;2.10;;;;;;;;;;5073113;28;20024;-60
2023/06/02 08:35:54;;;;;;;2.13;1.92;;;;;;;;;;5073390;28;20031;-60
2023/06/02 08:38:20;;;;;;;2.30;2.10;;;;;;;;;;5072490;28;20033;-61
2023/06/02 08:40:47;;;;;;;2.50;2.30;;;;;;;;;;5090703;28;20024;-60
2023/06/02 08:43:13;;;;;;;2.35;2.15;;;;;;;;;;5091163;28;20070;-62
2023/06/02 08:45:43;;;;;;;2.70;2.30;;;;;;;;;;5092298;28;20024;-63
2023/06/02 08:48:13;;;;;;;2.25;2.05;;;;;;;;;;5092235;28;20103;-63
2023/06/02 08:50:42;;;;;;;2.38;2.17;;;;;;;;;;5090908;28;20032;-63
2023/06/02 08:53:11;;;;;;;2.35;2.15;;;;;;;;;;5092101;28;20060;-63
2023/06/02 08:55:39;;;;;;;2.40;2.20;;;;;;;;;;5090666;28;20395;-61
2023/06/02 08:58:05;;;;;;;2.65;2.10;;;;;;;;;;5090371;28;20103;-62
2023/06/02 09:00:31;;;;;;;2.67;2.45;;;;;;;;;;5091107;28;20541;-61
2023/06/02 09:02:56;;;;;;;2.03;1.90;;;;;;;;;;5091891;28;20027;-60
2023/06/02 09:05:22;;;;;;;2.50;2.30;;;;;;;;;;5091868;28;20383;-60
2023/06/02 09:08:06;;;;;;;2.53;2.33;;;;;;;;;;5090387;28;20077;-61
2023/06/02 09:10:32;;;;;;;2.22;2.03;;;;;;;;;;5089483;28;20035;-64
2023/06/02 09:12:57;;;;;;;2.10;2.00;;;;;;;;;;5092124;28;20036;-62
2023/06/02 09:15:24;;;;;;;11.65;2.40;;;;;;;;;;5093036;28;20069;-61
2023/06/02 09:17:50;;;;;;;10.52;2.50;;;;;;;;;;5092889;28;20111;-61
2023/06/02 09:20:16;;;;;;;4.57;2.40;;;;;;;;;;5092701;28;20556;-60
2023/06/02 09:22:55;;;;;;;8.48;3.03;;;;;;;;;;5091200;28;20074;-59
2023/06/02 09:25:25;;;;;;;5.22;2.78;;;;;;;;;;5092115;28;20028;-59
2023/06/02 09:27:52;;;;;;;5.30;2.75;;;;;;;;;;5092560;28;20380;-58
2023/06/02 09:30:18;;;;;;;3.25;2.42;;;;;;;;;;5092761;28;20051;-58
2023/06/02 09:33:11;;;;;;;4.00;2.35;;;;;;;;;;5092488;28;20468;-60
2023/06/02 09:35:42;;;;;;;5.97;3.58;;;;;;;;;;5092786;28;20032;-61
2023/06/02 09:38:10;;;;;;;3.50;3.00;;;;;;;;;;5092336;28;20024;-61
2023/06/02 09:40:37;;;;;;;5.60;3.30;;;;;;;;;;5092486;28;20027;-60
2023/06/02 09:43:08;;;;;;;5.05;3.00;;;;;;;;;;5092304;28;20036;-61
2023/06/02 09:45:58;;;;;;;4.30;3.40;;;;;;;;;;5092634;28;20429;-60
2023/06/02 09:48:23;;;;;;;3.65;3.22;;;;;;;;;;5092422;28;20035;-59
2023/06/02 09:50:50;;;;;;;4.75;3.00;;;;;;;;;;5093755;28;20029;-60
2023/06/02 09:53:17;;;;;;;3.92;3.05;;;;;;;;;;5096682;28;20063;-58
2023/06/02 09:55:44;;;;;;;3.30;2.72;;;;;;;;;;5096631;28;20024;-59
2023/06/02 09:58:10;;;;;;;3.13;2.83;;;;;;;;;;5096776;28;20020;-59
2023/06/02 10:00:36;;;;;;;3.10;2.90;;;;;;;;;;5096396;28;20531;-60
2023/06/02 10:03:02;;;;;;;3.75;3.33;;;;;;;;;;5096483;28;20027;-59
2023/06/02 10:05:29;;;;;;;3.65;2.90;;;;;;;;;;5096286;28;20379;-59
2023/06/02 10:08:06;;;;;;;3.25;2.95;;;;;;;;;;5096320;28;20416;-62
2023/06/02 10:10:56;;;;;;;3.58;2.92;;;;;;;;;;5096461;28;20063;-60
2023/06/02 10:13:54;;;;;;;3.28;2.88;;;;;;;;;;5096197;28;20111;-62
2023/06/02 10:16:34;;;;;;;4.40;2.97;;;;;;;;;;5095960;28;20031;-61
2023/06/02 10:19:19;;;;;;;2.60;2.40;;;;;;;;;;5096404;28;20380;-60
2023/06/02 10:22:06;;;;;;;3.85;2.80;;;;;;;;;;5096088;28;20467;-62
2023/06/02 10:24:52;;;;;;;2.92;2.58;;;;;;;;;;5094425;28;20039;-60
2023/06/02 10:27:27;;;;;;;3.00;2.45;;;;;;;;;;5095956;28;20032;-61
2023/06/02 10:29:53;;;;;;;2.90;2.63;;;;;;;;;;5095760;28;20559;-61
2023/06/02 10:32:27;;;;;;;2.55;2.35;;;;;;;;;;5096154;28;20399;-62
2023/06/02 10:34:56;;;;;;;2.55;2.35;;;;;;;;;;5095752;28;20164;-60
2023/06/02 10:37:23;;;;;;;2.83;2.63;;;;;;;;;;5096027;28;20107;-61
2023/06/02 10:39:56;;;;;;;4.55;2.42;;;;;;;;;;5095357;28;20051;-61
2023/06/02 10:42:27;;;;;;;2.88;2.47;;;;;;;;;;5096048;28;20055;-61
2023/06/02 10:45:20;;;;;;;2.60;2.40;;;;;;;;;;5095779;28;20043;-60
2023/06/02 10:47:46;;;;;;;2.75;2.55;;;;;;;;;;5095383;28;20036;-60
2023/06/02 10:50:18;;;;;;;2.95;2.65;;;;;;;;;;5095432;28;20399;-61
2023/06/02 10:53:09;;;;;;;2.70;2.50;;;;;;;;;;5095391;28;20075;-60
2023/06/02 10:55:38;;;;;;;2.40;2.20;;;;;;;;;;5092774;28;20068;-60
2023/06/02 10:58:06;;;;;;;2.33;2.13;;;;;;;;;;5095329;28;20107;-61
2023/06/02 11:00:40;;;;;;;4.05;2.38;;;;;;;;;;5094177;28;20428;-60
2023/06/02 11:03:09;;;;;;;4.57;2.60;;;;;;;;;;5094944;28;20024;-60
2023/06/02 11:05:35;;;;;;;2.95;2.30;;;;;;;;;;5095143;28;20056;-61
2023/06/02 11:08:17;;;;;;;2.83;2.35;;;;;;;;;;5095310;28;20075;-63
2023/06/02 11:10:58;;;;;;;2.60;2.40;;;;;;;;;;5095277;28;20032;-61
2023/06/02 11:13:28;;;;;;;2.92;2.60;;;;;;;;;;5094927;28;20020;-62
2023/06/02 11:15:53;;;;;;;2.88;2.58;;;;;;;;;;5094934;28;20489;-60
2023/06/02 11:18:22;;;;;;;4.10;2.70;;;;;;;;;;5095131;28;20111;-60
2023/06/02 11:20:51;;;;;;;3.55;2.50;;;;;;;;;;5095097;28;20024;-61
2023/06/02 11:23:20;;;;;;;2.80;2.58;;;;;;;;;;5094933;28;20035;-60
2023/06/02 11:25:47;;;;;;;2.35;2.10;;;;;;;;;;5094758;28;20032;-60
2023/06/02 11:28:21;;;;;;;2.75;2.20;;;;;;;;;;5094941;28;20035;-63
2023/06/02 11:31:11;;;;;;;3.03;2.45;;;;;;;;;;5094710;28;20035;-61
2023/06/02 11:33:39;;;;;;;3.60;2.47;;;;;;;;;;5094933;28;20461;-62
2023/06/02 11:36:08;;;;;;;2.92;2.50;;;;;;;;;;5094563;28;20498;-60
2023/06/02 11:38:34;;;;;;;3.15;2.40;;;;;;;;;;5094265;28;20044;-60
2023/06/02 11:41:13;;;;;;;3.25;2.35;;;;;;;;;;5083162;28;20036;-60
2023/06/02 11:43:39;;;;;;;2.72;2.47;;;;;;;;;;5072555;28;20029;-63
2023/06/02 11:46:13;;;;;;;4.20;2.70;;;;;;;;;;5072641;28;20025;-61
2023/06/02 11:48:40;;;;;;;2.78;2.47;;;;;;;;;;5075789;28;20020;-60
2023/06/02 11:51:10;;;;;;;2.50;2.30;;;;;;;;;;5092559;28;20115;-60
2023/06/02 11:53:55;;;;;;;2.53;2.33;;;;;;;;;;5092621;28;20027;-61
2023/06/02 11:56:21;;;;;;;3.60;2.58;;;;;;;;;;5090598;28;20399;-61
2023/06/02 11:58:47;;;;;;;2.55;2.30;;;;;;;;;;5092593;28;20024;-60
2023/06/02 12:01:17;;;;;;;2.90;2.60;;;;;;;;;;5091113;28;20402;-60
2023/06/02 12:04:01;;;;;;;3.03;2.30;;;;;;;;;;5106795;28;20036;-60
2023/06/02 12:06:27;;;;;;;2.90;2.50;;;;;;;;;;5090472;28;20062;-60
2023/06/02 12:08:53;;;;;;;2.47;2.28;;;;;;;;;;5090794;28;20276;-61
2023/06/02 12:11:24;;;;;;;2.35;2.17;;;;;;;;;;5091491;28;20079;-61
2023/06/02 12:13:58;;;;;;;3.80;2.47;;;;;;;;;;5091376;28;20122;-60
2023/06/02 12:16:24;;;;;;;3.20;2.50;;;;;;;;;;5091488;28;20043;-61
2023/06/02 12:18:51;;;;;;;3.53;2.22;;;;;;;;;;5092413;28;20043;-60
2023/06/02 12:21:26;;;;;;;3.83;2.42;;;;;;;;;;5092171;28;20028;-60
2023/06/02 12:23:53;;;;;;;4.47;2.60;;;;;;;;;;5091871;28;20032;-60
2023/06/02 12:26:19;;;;;;;2.78;2.47;;;;;;;;;;5091895;28;20028;-62
2023/06/02 12:28:45;;;;;;;2.92;2.45;;;;;;;;;;5091883;28;20032;-60
2023/06/02 12:31:11;;;;;;;2.40;2.20;;;;;;;;;;5091909;28;20073;-60
2023/06/02 12:33:40;;;;;;;2.45;2.28;;;;;;;;;;5092156;28;20032;-61
2023/06/02 12:36:07;;;;;;;2.65;2.45;;;;;;;;;;5091717;28;20107;-60
2023/06/02 12:38:34;;;;;;;4.53;2.47;;;;;;;;;;5091778;28;20044;-61
2023/06/02 12:41:00;;;;;;;2.67;2.47;;;;;;;;;;5089776;28;20103;-60
2023/06/02 12:43:25;;;;;;;2.60;2.40;;;;;;;;;;5091265;28;20119;-62
2023/06/02 12:45:51;;;;;;;2.50;2.30;;;;;;;;;;5090177;28;20048;-60
2023/06/02 12:48:17;;;;;;;5.40;2.58;;;;;;;;;;5091605;28;20040;-62
2023/06/02 12:50:42;;;;;;;3.25;2.58;;;;;;;;;;5090786;28;20040;-60
2023/06/02 12:53:08;;;;;;;3.47;2.20;;;;;;;;;;5091295;28;20077;-60
2023/06/02 12:55:33;;;;;;;2.28;2.10;;;;;;;;;;5091824;28;20063;-58
2023/06/02 12:57:59;;;;;;;3.00;2.40;;;;;;;;;;5091268;28;20081;-63
2023/06/02 13:00:24;;;;;;;4.38;2.40;;;;;;;;;;5091251;28;20720;-60
2023/06/02 13:02:50;;;;;;;2.60;2.40;;;;;;;;;;5089887;28;20024;-60
2023/06/02 13:05:16;;;;;;;2.38;2.17;;;;;;;;;;5091363;28;20065;-60
2023/06/02 13:07:42;;;;;;;3.35;2.33;;;;;;;;;;5091422;28;20020;-60
2023/06/02 13:10:10;;;;;;;2.50;2.30;;;;;;;;;;5089803;28;20167;-62
2023/06/02 13:12:36;;;;;;;2.95;2.65;;;;;;;;;;5088758;28;20024;-60
2023/06/02 13:15:03;;;;;;;2.65;2.45;;;;;;;;;;5090285;28;20368;-61
2023/06/02 13:17:30;;;;;;;5.07;2.50;;;;;;;;;;5089464;28;20024;-62
2023/06/02 13:19:56;;;;;;;2.80;2.45;;;;;;;;;;5088705;28;20036;-63
2023/06/02 13:22:21;;;;;;;5.13;2.65;;;;;;;;;;5088460;28;20043;-60
2023/06/02 13:24:47;;;;;;;2.65;2.42;;;;;;;;;;5091095;28;20028;-60
2023/06/02 13:27:14;;;;;;;9.85;2.58;;;;;;;;;;5090552;28;20521;-59
2023/06/02 13:29:39;;;;;;;3.35;2.60;;;;;;;;;;5090484;28;20028;-60
2023/06/02 13:32:06;;;;;;;3.53;2.40;;;;;;;;;;5089692;28;20036;-60
2023/06/02 13:34:32;;;;;;;2.50;2.25;;;;;;;;;;5089757;28;20039;-60
2023/06/02 13:36:58;;;;;;;2.58;2.30;;;;;;;;;;5088451;28;20032;-60
2023/06/02 13:39:23;;;;;;;4.63;2.40;;;;;;;;;;5090861;28;20044;-60
2023/06/02 13:41:49;;;;;;;3.20;2.45;;;;;;;;;;5090652;28;20556;-60
2023/06/02 13:44:18;;;;;;;5.53;2.38;;;;;;;;;;5089650;28;20609;-61
2023/06/02 13:46:46;;;;;;;5.10;2.67;;;;;;;;;;5087209;28;20099;-61
2023/06/02 13:49:16;;;;;;;2.97;2.40;;;;;;;;;;5081531;28;20044;-60
2023/06/02 13:51:48;;;;;;;3.13;2.80;;;;;;;;;;5089236;28;20028;-60
2023/06/02 13:54:17;;;;;;;2.60;2.20;;;;;;;;;;5088081;28;20055;-60
2023/06/02 13:56:45;;;;;;;3.35;2.28;;;;;;;;;;5089420;28;20069;-62
2023/06/02 13:59:10;;;;;;;3.22;2.40;;;;;;;;;;5088825;28;20032;-61
2023/06/02 14:01:36;;;;;;;2.58;2.35;;;;;;;;;;5088223;28;20043;-59
2023/06/02 14:04:04;;;;;;;2.65;2.22;;;;;;;;;;5090554;28;20028;-59
2023/06/02 14:06:30;;;;;;;2.67;2.38;;;;;;;;;;5090529;28;20024;-59
2023/06/02 14:08:56;;;;;;;2.72;2.53;;;;;;;;;;5090339;28;20356;-60
2023/06/02 14:11:22;;;;;;;3.17;2.80;;;;;;;;;;5089190;28;20073;-60
2023/06/02 14:13:48;;;;;;;3.05;2.17;;;;;;;;;;5090668;28;20375;-60
2023/06/02 14:16:14;;;;;;;2.60;2.40;;;;;;;;;;5090731;28;20028;-59
2023/06/02 14:18:39;;;;;;;2.67;2.47;;;;;;;;;;5090688;28;20032;-60
2023/06/02 14:21:05;;;;;;;2.75;2.55;;;;;;;;;;5090831;28;20074;-59
2023/06/02 14:23:31;;;;;;;2.85;2.40;;;;;;;;;;5090264;28;20059;-60
2023/06/02 14:25:56;;;;;;;3.47;2.60;;;;;;;;;;5090735;28;20413;-59
2023/06/02 14:28:22;;;;;;;2.80;2.60;;;;;;;;;;5090764;28;20498;-59
2023/06/02 14:30:47;;;;;;;2.65;2.40;;;;;;;;;;5090551;28;20471;-60
2023/06/02 14:33:13;;;;;;;2.50;2.30;;;;;;;;;;5090335;28;20039;-59
2023/06/02 14:35:38;;;;;;;3.08;2.33;;;;;;;;;;5090555;28;20028;-59
2023/06/02 14:38:04;;;;;;;3.45;2.45;;;;;;;;;;5093572;28;20353;-59
2023/06/02 14:40:30;;;;;;;2.85;2.58;;;;;;;;;;5093249;28;20127;-59
2023/06/02 14:42:55;;;;;;;2.83;2.53;;;;;;;;;;5094155;28;20032;-60
2023/06/02 14:45:21;;;;;;;4.05;2.50;;;;;;;;;;5094049;28;20031;-59